createdAt,value
2018-05-02T00:02:17.755Z,4.78
2018-05-02T00:04:47.265Z,5.00
2018-05-02T00:07:17.679Z,5.65
2018-05-02T00:09:47.175Z,5.33
2018-05-02T00:12:17.673Z,5.50
2018-05-02T00:14:47.707Z,5.13
2018-05-02T00:17:18.413Z,5.05
2018-05-02T00:19:47.886Z,5.15
2018-05-02T00:22:17.754Z,5.57
2018-05-02T00:24:48.087Z,5.40
2018-05-02T00:27:18.450Z,5.92
2018-05-02T00:29:47.930Z,5.40
2018-05-02T00:32:17.639Z,5.00
2018-05-02T00:34:47.110Z,5.77
2018-05-02T00:45:43.013Z,5.20
2018-05-02T00:48:13.005Z,5.27
2018-05-02T00:50:42.494Z,5.10
2018-05-02T00:53:11.989Z,5.20
2018-05-02T00:55:42.341Z,5.80
2018-05-02T00:58:12.333Z,4.73
2018-05-02T01:00:41.848Z,4.80
2018-05-02T01:03:11.328Z,4.80
2018-05-02T01:05:40.814Z,5.53
2018-05-02T01:08:11.018Z,5.00
2018-05-02T01:10:40.550Z,5.27
2018-05-02T01:13:10.065Z,4.93
2018-05-02T01:15:39.727Z,5.00
2018-05-02T01:18:09.211Z,4.80
2018-05-02T01:20:38.715Z,4.80
2018-05-02T01:23:08.250Z,5.30
2018-05-02T01:25:37.439Z,5.10
2018-05-02T01:28:06.905Z,4.60
2018-05-02T01:30:36.965Z,5.63
2018-05-02T01:33:06.465Z,5.03
2018-05-02T01:35:35.945Z,5.00
2018-05-02T01:38:05.474Z,4.93
2018-05-02T01:40:34.980Z,5.08
2018-05-02T01:43:04.238Z,4.70
2018-05-02T01:45:33.743Z,5.07
2018-05-02T01:48:03.282Z,5.03
2018-05-02T01:50:33.100Z,4.50
2018-05-02T01:53:03.039Z,4.70
2018-05-02T01:55:32.549Z,4.77
2018-05-02T01:58:02.094Z,4.00
2018-05-02T02:00:31.654Z,4.87
2018-05-02T02:03:01.181Z,4.63
2018-05-02T02:05:30.730Z,4.70
2018-05-02T02:08:00.230Z,4.67
2018-05-02T02:10:30.226Z,4.97
2018-05-02T02:12:59.733Z,4.20
2018-05-02T02:15:29.593Z,4.23
2018-05-02T02:17:59.175Z,5.07
2018-05-02T02:20:28.841Z,4.67
2018-05-02T02:22:58.369Z,5.03
2018-05-02T02:25:28.181Z,4.80
2018-05-02T02:27:57.627Z,4.90
2018-05-02T02:30:27.294Z,4.70
2018-05-02T02:32:56.836Z,4.70
2018-05-02T02:35:26.325Z,4.70
2018-05-02T02:37:55.887Z,4.83
2018-05-02T02:40:25.367Z,4.60
2018-05-02T02:42:54.907Z,4.90
2018-05-02T02:45:24.414Z,4.80
2018-05-02T02:47:53.885Z,4.78
2018-05-02T02:50:23.434Z,4.70
2018-05-02T02:52:53.323Z,5.08
2018-05-02T02:55:23.005Z,4.70
2018-05-02T02:57:52.478Z,4.63
2018-05-02T03:00:23.021Z,5.00
2018-05-02T03:02:52.247Z,4.63
2018-05-02T03:05:21.822Z,4.28
2018-05-02T03:07:51.326Z,4.43
2018-05-02T03:10:20.818Z,4.33
2018-05-02T03:12:50.299Z,4.63
2018-05-02T03:15:19.807Z,4.50
2018-05-02T03:17:49.275Z,4.30
2018-05-02T03:20:18.837Z,4.33
2018-05-02T03:22:49.279Z,4.30
2018-05-02T03:25:18.775Z,4.50
2018-05-02T03:27:48.257Z,4.43
2018-05-02T03:30:18.280Z,4.40
2018-05-02T03:32:47.775Z,4.87
2018-05-02T03:35:17.758Z,4.77
2018-05-02T03:37:47.276Z,4.67
2018-05-02T03:40:17.723Z,4.37
2018-05-02T03:42:47.249Z,4.80
2018-05-02T03:45:18.514Z,4.07
2018-05-02T03:47:47.753Z,4.80
2018-05-02T03:50:18.446Z,3.85
2018-05-02T03:52:47.961Z,3.90
2018-05-02T03:55:18.076Z,4.20
2018-05-02T03:57:47.588Z,4.47
2018-05-02T04:00:23.442Z,4.10
2018-05-02T04:05:02.266Z,4.50
2018-05-02T04:07:31.771Z,5.05
2018-05-02T04:10:01.570Z,4.07
2018-05-02T04:12:31.114Z,4.33
2018-05-02T04:15:00.644Z,4.60
2018-05-02T04:17:30.138Z,4.73
2018-05-02T04:19:59.638Z,4.20
2018-05-02T04:22:29.730Z,4.65
2018-05-02T04:24:59.217Z,4.60
2018-05-02T04:27:28.681Z,4.47
2018-05-02T04:29:58.210Z,4.37
2018-05-02T04:32:28.359Z,5.45
2018-05-02T04:34:57.870Z,4.40
2018-05-02T04:37:27.376Z,4.92
2018-05-02T04:39:56.865Z,4.22
2018-05-02T04:42:26.448Z,4.78
2018-05-02T04:44:56.590Z,5.20
2018-05-02T04:47:25.814Z,5.00
2018-05-02T04:49:55.361Z,4.83
2018-05-02T04:52:24.915Z,4.70
2018-05-02T04:54:54.404Z,4.23
2018-05-02T04:57:24.106Z,4.65
2018-05-02T04:59:53.362Z,4.90
2018-05-02T05:02:22.942Z,5.40
2018-05-02T05:04:52.511Z,4.73
2018-05-02T05:07:22.325Z,4.90
2018-05-02T05:09:51.540Z,4.58
2018-05-02T05:12:21.049Z,4.40
2018-05-02T05:14:50.586Z,5.30
2018-05-02T05:17:20.105Z,4.70
2018-05-02T05:19:49.590Z,5.10
2018-05-02T05:22:19.174Z,4.60
2018-05-02T05:24:49.035Z,5.37
2018-05-02T05:27:18.586Z,5.33
2018-05-02T05:29:48.828Z,5.20
2018-05-02T05:32:18.417Z,5.50
2018-05-02T05:34:47.921Z,4.80
2018-05-02T05:37:17.674Z,4.57
2018-05-02T05:39:47.174Z,5.50
2018-05-02T05:42:17.697Z,4.58
2018-05-02T05:44:47.233Z,4.50
2018-05-02T05:47:17.659Z,5.05
2018-05-02T05:49:47.695Z,5.20
2018-05-02T05:58:22.931Z,5.30
2018-05-02T06:00:52.782Z,5.10
2018-05-02T06:03:22.374Z,5.13
2018-05-02T06:05:51.926Z,4.93
2018-05-02T06:08:21.445Z,4.97
2018-05-02T06:10:50.961Z,5.33
2018-05-02T06:13:20.601Z,5.73
2018-05-02T06:15:50.076Z,5.23
2018-05-02T06:18:19.590Z,4.90
2018-05-02T06:20:49.546Z,4.70
2018-05-02T06:23:19.164Z,4.97
2018-05-02T06:25:48.653Z,4.90
2018-05-02T06:28:18.252Z,4.87
2018-05-02T06:30:47.778Z,4.67
2018-05-02T06:33:19.329Z,4.32
2018-05-02T06:35:48.826Z,4.92
2018-05-02T06:38:18.107Z,4.57
2018-05-02T06:40:48.170Z,4.17
2018-05-02T06:43:17.731Z,5.47
2018-05-02T06:45:47.283Z,4.97
2018-05-02T06:57:57.593Z,4.20
2018-05-02T07:00:26.817Z,4.30
2018-05-02T07:02:57.048Z,3.80
2018-05-02T07:05:26.631Z,3.60
2018-05-02T07:07:56.256Z,3.37
2018-05-02T07:10:25.719Z,3.40
2018-05-02T07:12:55.255Z,3.40
2018-05-02T07:15:24.879Z,3.77
2018-05-02T07:17:54.892Z,3.57
2018-05-02T07:20:24.491Z,3.77
2018-05-02T07:22:54.002Z,3.30
2018-05-02T07:25:23.545Z,4.33
2018-05-02T07:27:54.374Z,4.00
2018-05-02T07:30:23.596Z,3.83
2018-05-02T07:32:53.318Z,3.60
2018-05-02T07:35:22.844Z,3.87
2018-05-02T07:37:52.342Z,3.93
2018-05-02T07:40:21.911Z,3.98
2018-05-02T07:42:51.765Z,4.67
2018-05-02T07:45:21.284Z,4.25
2018-05-02T07:47:50.857Z,3.67
2018-05-02T07:50:20.508Z,4.50
2018-05-02T07:52:50.043Z,4.83
2018-05-02T07:55:19.581Z,5.37
2018-05-02T07:57:49.158Z,4.83
2018-05-02T08:00:18.725Z,5.23
2018-05-02T08:02:48.223Z,4.90
2018-05-02T08:05:18.603Z,5.93
2018-05-02T08:07:48.138Z,5.40
2018-05-02T08:10:17.818Z,4.87
2018-05-02T08:12:47.378Z,5.00
2018-05-02T08:15:18.082Z,5.03
2018-05-02T08:17:47.613Z,4.95
2018-05-02T08:20:17.973Z,5.40
2018-05-02T08:22:47.567Z,5.63
2018-05-02T08:25:18.336Z,5.93
2018-05-02T08:27:48.373Z,5.83
2018-05-02T08:30:18.039Z,4.80
2018-05-02T08:32:47.556Z,5.60
2018-05-02T08:35:18.012Z,5.60
2018-05-02T08:37:47.658Z,5.70
2018-05-02T08:40:18.048Z,5.53
2018-05-02T08:42:47.666Z,5.17
2018-05-02T08:45:17.832Z,5.90
2018-05-02T08:47:47.337Z,5.40
2018-05-02T08:59:12.820Z,5.40
2018-05-02T09:01:42.074Z,5.50
2018-05-02T09:04:11.597Z,5.43
2018-05-02T09:06:41.696Z,5.47
2018-05-02T09:09:11.203Z,5.83
2018-05-02T09:11:40.750Z,6.20
2018-05-02T09:14:10.301Z,6.33
2018-05-02T09:16:39.891Z,6.10
2018-05-02T09:19:09.404Z,6.50
2018-05-02T09:21:39.553Z,5.90
2018-05-02T09:24:09.566Z,6.10
2018-05-02T09:26:39.066Z,6.20
2018-05-02T09:29:08.595Z,5.73
2018-05-02T09:31:38.127Z,5.67
2018-05-02T09:34:07.660Z,5.80
2018-05-02T09:36:37.534Z,6.40
2018-05-02T09:39:07.087Z,6.10
2018-05-02T09:41:36.617Z,6.13
2018-05-02T09:44:07.178Z,6.57
2018-05-02T09:46:36.755Z,6.53
2018-05-02T09:49:06.339Z,5.50
2018-05-02T09:51:36.941Z,5.30
2018-05-02T09:54:06.536Z,5.00
2018-05-02T09:56:36.102Z,5.72
2018-05-02T09:59:06.224Z,5.67
2018-05-02T10:01:35.755Z,5.95
2018-05-02T10:04:05.276Z,5.87
2018-05-02T10:06:35.276Z,6.35
2018-05-02T10:09:06.123Z,6.13
2018-05-02T10:11:35.658Z,6.55
2018-05-02T10:14:05.166Z,7.00
2018-05-02T10:16:35.204Z,7.00
2018-05-02T10:19:04.770Z,7.53
2018-05-02T10:21:34.650Z,7.20
2018-05-02T10:24:03.991Z,7.40
2018-05-02T10:26:33.626Z,7.10
2018-05-02T10:29:03.594Z,7.27
2018-05-02T10:31:33.096Z,6.60
2018-05-02T10:34:02.617Z,7.67
2018-05-02T10:36:32.152Z,6.78
2018-05-02T10:39:01.664Z,7.40
2018-05-02T10:41:31.663Z,7.60
2018-05-02T10:44:01.695Z,7.57
2018-05-02T15:07:46.503Z,6.23
2018-05-02T15:18:21.894Z,5.73
2018-05-02T15:30:31.554Z,5.47
2018-05-02T15:33:01.102Z,5.50
2018-05-02T15:35:30.695Z,5.83
2018-05-02T15:38:00.352Z,5.57
2018-05-02T15:40:29.982Z,6.58
2018-05-02T15:42:59.681Z,5.43
2018-05-02T15:45:29.246Z,4.60
2018-05-02T15:47:58.800Z,4.93
2018-05-02T15:50:28.354Z,4.30
2018-05-02T15:52:58.011Z,5.70
2018-05-02T15:55:27.769Z,5.47
2018-05-02T15:57:57.359Z,6.27
2018-05-02T16:00:27.449Z,5.17
2018-05-02T16:02:57.447Z,4.87
2018-05-02T16:05:27.530Z,5.00
2018-05-02T16:07:57.082Z,5.20
2018-05-02T16:10:26.596Z,5.80
2018-05-02T16:12:56.130Z,5.10
2018-05-02T16:15:25.555Z,4.90
2018-05-02T16:17:55.123Z,4.90
2018-05-02T16:20:24.707Z,4.50
2018-05-02T16:22:54.636Z,5.23
2018-05-02T16:25:24.302Z,4.87
2018-05-02T16:27:54.411Z,4.93
2018-05-02T16:30:23.942Z,5.60
2018-05-02T16:32:54.503Z,5.50
2018-05-02T16:35:24.022Z,5.23
2018-05-02T16:37:54.460Z,4.40
2018-05-02T16:40:24.057Z,5.10
2018-05-02T16:42:53.660Z,5.13
2018-05-02T16:45:23.887Z,5.10
2018-05-02T16:47:53.303Z,4.93
2018-05-02T16:50:22.818Z,5.30
2018-05-02T16:52:52.359Z,5.50
2018-05-02T16:55:21.857Z,5.05
2018-05-02T16:57:52.411Z,5.83
2018-05-02T17:00:22.025Z,6.10
2018-05-02T17:02:51.583Z,7.70
2018-05-02T17:05:21.233Z,5.95
2018-05-02T17:07:50.571Z,5.83
2018-05-02T17:10:20.110Z,6.03
2018-05-02T17:12:49.647Z,6.00
2018-05-02T17:15:19.261Z,6.40
2018-05-02T17:17:48.803Z,5.73
2018-05-02T17:20:18.339Z,6.40
2018-05-02T17:22:48.453Z,6.20
2018-05-02T17:25:18.035Z,6.10
2018-05-02T17:27:47.562Z,6.07
2018-05-02T17:30:18.226Z,6.80
2018-05-02T17:32:48.223Z,7.03
2018-05-02T17:35:18.450Z,7.28
2018-05-02T17:37:48.015Z,6.58
2018-05-02T17:40:17.925Z,6.75
2018-05-02T17:42:47.450Z,7.30
2018-05-02T17:45:18.269Z,6.97
2018-05-02T17:47:47.874Z,7.13
2018-05-02T17:59:46.122Z,7.07
2018-05-02T18:09:51.004Z,8.20
2018-05-02T18:12:20.546Z,7.47
2018-05-02T18:14:50.568Z,8.03
2018-05-02T18:17:19.946Z,7.27
2018-05-02T18:19:49.948Z,7.10
2018-05-02T18:22:19.467Z,7.50
2018-05-02T18:24:49.059Z,8.30
2018-05-02T18:27:18.347Z,8.50
2018-05-02T18:29:47.879Z,8.90
2018-05-02T18:32:17.703Z,9.00
2018-05-02T18:34:47.598Z,8.10
2018-05-02T18:37:18.422Z,7.57
2018-05-02T18:39:48.954Z,7.78
2018-05-02T18:42:18.455Z,8.87
2018-05-02T18:44:47.966Z,9.00
2018-05-02T18:47:18.195Z,7.80
2018-05-02T18:49:50.076Z,9.10
2018-05-02T18:52:20.466Z,9.03
2018-05-02T18:54:49.979Z,9.43
2018-05-02T18:57:20.023Z,8.90
2018-05-02T18:59:49.593Z,9.30
2018-05-02T19:02:19.934Z,8.67
2018-05-02T19:04:49.768Z,8.87
2018-05-02T19:07:20.117Z,9.30
2018-05-02T19:09:49.648Z,8.90
2018-05-02T19:12:19.828Z,9.90
2018-05-02T19:14:50.220Z,9.40
2018-05-02T19:17:19.787Z,10.30
2018-05-02T19:20:52.199Z,9.20
2018-05-02T19:23:22.292Z,9.80
2018-05-02T19:26:55.522Z,10.10
2018-05-02T19:29:25.378Z,10.30
2018-05-02T19:34:02.681Z,10.30
2018-05-02T19:36:32.269Z,10.73
2018-05-02T19:39:01.995Z,10.87
2018-05-02T19:41:36.603Z,10.95
2018-05-02T19:44:06.671Z,11.00
2018-05-02T19:46:36.325Z,10.50
2018-05-02T19:49:05.909Z,11.10
2018-05-02T19:51:39.721Z,10.70
2018-05-02T19:54:09.599Z,11.10
2018-05-02T19:56:39.161Z,11.30
2018-05-02T19:59:08.463Z,11.47
2018-05-02T20:01:43.470Z,12.30
2018-05-02T20:11:13.519Z,11.67
2018-05-02T20:14:13.833Z,12.87
2018-05-02T20:16:43.414Z,14.03
2018-05-02T20:26:20.127Z,11.90
2018-05-02T20:28:49.679Z,12.35
2018-05-02T20:31:19.191Z,12.23
2018-05-02T20:33:48.818Z,12.68
2018-05-02T20:36:18.086Z,13.27
2018-05-02T20:38:47.649Z,13.90
2018-05-02T20:41:17.773Z,12.00
2018-05-02T20:43:47.423Z,12.93
2018-05-02T20:46:17.827Z,12.78
2018-05-02T20:48:47.628Z,13.73
2018-05-02T20:51:17.694Z,13.33
2018-05-02T20:53:47.213Z,13.00
2018-05-02T20:56:17.806Z,12.43
2018-05-02T20:58:47.299Z,13.10
2018-05-02T21:10:57.180Z,12.27
2018-05-02T21:13:26.755Z,13.03
2018-05-02T21:15:56.261Z,13.57
2018-05-02T21:18:26.306Z,14.40
2018-05-02T21:20:55.849Z,13.47
2018-05-02T21:23:25.590Z,13.20
2018-05-02T21:25:55.264Z,12.70
2018-05-02T21:28:24.761Z,13.97
2018-05-02T21:30:54.424Z,14.10
2018-05-02T21:33:24.595Z,13.55
2018-05-02T21:35:54.270Z,14.30
2018-05-02T21:38:23.481Z,13.15
2018-05-02T21:40:53.011Z,13.37
2018-05-02T21:43:22.561Z,13.50
2018-05-02T21:45:52.060Z,13.30
2018-05-02T21:48:21.583Z,12.83
2018-05-02T21:50:50.903Z,12.70
2018-05-02T21:53:20.436Z,12.63
2018-05-02T21:55:50.522Z,13.20
2018-05-02T21:58:19.759Z,12.03
2018-05-02T22:00:49.264Z,12.07
2018-05-02T22:03:18.802Z,12.63
2018-05-02T22:05:48.822Z,12.63
2018-05-02T22:08:19.113Z,13.77
2018-05-02T22:10:48.729Z,13.17
2018-05-02T22:13:18.295Z,13.17
2018-05-02T22:15:48.078Z,12.80
2018-05-02T22:18:17.934Z,13.18
2018-05-02T22:20:47.466Z,12.80
2018-05-02T22:23:17.728Z,13.40
2018-05-02T22:25:47.279Z,12.27
2018-05-02T22:28:17.706Z,13.40
2018-05-02T22:30:47.214Z,13.00
2018-05-02T22:33:17.822Z,13.30
2018-05-02T22:35:47.450Z,13.70
2018-05-02T22:38:17.683Z,12.78
2018-05-02T22:40:47.655Z,13.53
2018-05-02T22:43:17.803Z,13.00
2018-05-02T22:45:47.293Z,13.27
2018-05-02T22:48:17.730Z,13.90
2018-05-02T22:50:47.273Z,14.40
2018-05-02T22:53:17.745Z,13.03
2018-05-02T22:55:47.642Z,13.87
2018-05-02T22:58:18.191Z,14.57
2018-05-02T23:00:47.715Z,14.87
2018-05-02T23:03:18.435Z,13.60
2018-05-02T23:05:47.934Z,14.30
2018-05-02T23:08:17.695Z,13.60
2018-05-02T23:10:47.281Z,13.93
2018-05-02T23:13:17.710Z,13.05
2018-05-02T23:15:47.217Z,13.30
2018-05-02T23:18:18.172Z,13.22
2018-05-02T23:20:48.105Z,12.47
2018-05-02T23:23:17.775Z,13.40
2018-05-02T23:25:49.283Z,13.87
2018-05-02T23:28:18.890Z,13.53
2018-05-02T23:30:48.406Z,14.23
2018-05-02T23:33:17.945Z,13.48
2018-05-02T23:35:47.927Z,13.20
2018-05-02T23:47:58.630Z,13.05
2018-05-02T23:50:28.161Z,13.60
2018-05-02T23:52:57.646Z,14.90
2018-05-02T23:55:27.203Z,14.50
2018-05-02T23:57:56.701Z,14.43
